createdAt,value
2022-08-04T00:02:07.861Z,76.00
2022-08-04T00:05:07.021Z,75.10
2022-08-04T00:08:02.924Z,76.20
2022-08-04T00:10:31.168Z,76.60
2022-08-04T00:13:00.905Z,75.90
2022-08-04T00:15:28.561Z,76.70
2022-08-04T00:18:04.478Z,75.90
2022-08-04T00:20:34.466Z,76.20
2022-08-04T00:23:02.524Z,75.20
2022-08-04T00:25:30.098Z,74.90
2022-08-04T00:27:57.343Z,74.30
2022-08-04T00:30:25.074Z,74.00
2022-08-04T00:32:52.733Z,73.90
2022-08-04T00:35:20.092Z,73.70
2022-08-04T00:37:47.857Z,73.70
2022-08-04T00:40:38.082Z,74.10
2022-08-04T00:43:23.698Z,73.60
2022-08-04T00:46:28.613Z,73.80
2022-08-04T00:49:28.664Z,73.90
2022-08-04T00:52:32.142Z,73.90
2022-08-04T00:55:24.568Z,73.30
2022-08-04T00:58:32.460Z,72.70
2022-08-04T01:01:06.552Z,72.90
2022-08-04T01:04:12.504Z,72.60
2022-08-04T01:06:56.271Z,72.50
2022-08-04T01:09:44.010Z,72.00
2022-08-04T01:12:19.546Z,71.80
2022-08-04T01:15:04.034Z,71.60
2022-08-04T01:17:55.216Z,71.50
2022-08-04T01:20:25.752Z,71.50
2022-08-04T01:23:16.657Z,72.00
2022-08-04T01:26:42.496Z,72.10
2022-08-04T01:29:12.983Z,72.40
2022-08-04T01:32:02.189Z,72.10
2022-08-04T01:34:42.800Z,72.10
2022-08-04T01:37:21.974Z,72.40
2022-08-04T01:40:02.359Z,72.70
2022-08-04T01:42:33.547Z,72.90
2022-08-04T01:45:07.818Z,73.00
2022-08-04T01:47:37.123Z,73.00
2022-08-04T01:50:09.144Z,73.30
2022-08-04T01:52:41.250Z,72.90
2022-08-04T01:55:13.562Z,72.70
2022-08-04T01:57:54.565Z,72.50
2022-08-04T02:00:27.847Z,72.40
2022-08-04T02:02:57.073Z,72.70
2022-08-04T02:05:26.814Z,72.50
2022-08-04T02:08:21.720Z,72.80
2022-08-04T02:11:03.623Z,72.40
2022-08-04T02:13:36.839Z,72.30
2022-08-04T02:16:24.719Z,72.30
2022-08-04T02:19:19.729Z,72.30
2022-08-04T02:21:51.789Z,72.20
2022-08-04T02:24:22.243Z,72.10
2022-08-04T02:26:51.877Z,72.00
2022-08-04T02:29:32.114Z,71.80
2022-08-04T02:32:07.535Z,72.00
2022-08-04T02:34:40.478Z,71.80
2022-08-04T02:37:09.157Z,72.00
2022-08-04T02:39:48.822Z,71.80
2022-08-04T02:42:17.255Z,72.00
2022-08-04T02:44:50.536Z,72.10
2022-08-04T02:47:21.178Z,71.90
2022-08-04T02:49:51.514Z,71.80
2022-08-04T02:52:20.814Z,71.60
2022-08-04T02:54:51.080Z,71.90
2022-08-04T02:57:19.001Z,71.90
2022-08-04T02:59:45.934Z,71.90
2022-08-04T03:02:12.823Z,72.00
2022-08-04T03:04:56.991Z,71.80
2022-08-04T03:07:51.741Z,72.80
2022-08-04T03:10:33.545Z,72.30
2022-08-04T03:13:15.281Z,72.40
2022-08-04T03:15:45.070Z,73.00
2022-08-04T03:18:46.385Z,73.60
2022-08-04T03:21:49.831Z,73.20
2022-08-04T03:24:54.150Z,73.70
2022-08-04T03:27:45.368Z,73.30
2022-08-04T03:30:18.956Z,73.90
2022-08-04T03:33:07.043Z,73.80
2022-08-04T03:35:55.573Z,73.90
2022-08-04T03:38:59.829Z,73.60
2022-08-04T03:41:51.693Z,74.20
2022-08-04T03:44:44.235Z,73.80
2022-08-04T03:47:59.573Z,73.70
2022-08-04T03:51:35.227Z,73.60
2022-08-04T03:54:53.405Z,73.60
2022-08-04T03:57:54.621Z,74.00
2022-08-04T04:00:30.952Z,74.10
2022-08-04T04:03:12.978Z,73.70
2022-08-04T04:06:32.481Z,73.70
2022-08-04T04:09:16.242Z,74.30
2022-08-04T04:12:06.935Z,73.50
2022-08-04T04:15:12.811Z,73.90
2022-08-04T04:17:39.525Z,74.00
2022-08-04T04:20:20.124Z,74.50
2022-08-04T04:23:36.709Z,73.50
2022-08-04T04:26:18.664Z,74.50
2022-08-04T04:29:23.299Z,73.80
2022-08-04T04:31:59.202Z,73.90
2022-08-04T04:34:46.390Z,73.90
2022-08-04T04:37:31.347Z,73.80
2022-08-04T04:40:16.171Z,73.40
2022-08-04T04:42:52.662Z,73.60
2022-08-04T04:45:45.598Z,73.30
2022-08-04T04:48:36.388Z,73.60
2022-08-04T04:51:10.168Z,73.30
2022-08-04T04:54:00.234Z,72.70
2022-08-04T04:57:01.571Z,72.90
2022-08-04T04:59:34.730Z,72.90
2022-08-04T05:02:22.521Z,72.40
2022-08-04T05:04:52.251Z,72.60
2022-08-04T05:07:37.759Z,72.60
2022-08-04T05:10:29.671Z,72.40
2022-08-04T05:14:35.581Z,72.00
2022-08-04T05:16:20.744Z,72.40
2022-08-04T05:19:03.969Z,71.80
2022-08-04T05:21:43.407Z,71.40
2022-08-04T05:24:14.046Z,71.40
2022-08-04T05:26:48.714Z,71.20
2022-08-04T05:29:30.886Z,70.60
2022-08-04T05:32:02.861Z,70.50
2022-08-04T05:34:33.903Z,70.40
2022-08-04T05:37:05.772Z,70.20
2022-08-04T05:39:39.137Z,70.00
2022-08-04T05:42:07.474Z,69.60
2022-08-04T05:44:35.798Z,69.20
2022-08-04T05:47:04.426Z,68.50
2022-08-04T05:49:32.926Z,68.80
2022-08-04T05:52:04.700Z,68.00
2022-08-04T05:54:34.197Z,68.00
2022-08-04T05:57:04.662Z,68.10
2022-08-04T05:59:32.732Z,67.30
2022-08-04T06:02:02.681Z,67.50
2022-08-04T06:04:37.250Z,66.00
2022-08-04T06:07:04.920Z,66.50
2022-08-04T06:09:32.398Z,66.00
2022-08-04T06:12:07.543Z,66.10
2022-08-04T06:14:45.636Z,64.30
2022-08-04T06:18:35.475Z,64.70
2022-08-04T06:20:19.339Z,64.00
2022-08-04T06:22:53.948Z,63.90
2022-08-04T06:25:24.929Z,63.90
2022-08-04T06:27:53.844Z,63.00
2022-08-04T06:30:25.672Z,62.50
2022-08-04T06:33:03.326Z,62.40
2022-08-04T06:35:33.127Z,61.50
2022-08-04T06:38:01.721Z,61.40
2022-08-04T06:40:33.450Z,60.90
2022-08-04T06:43:04.462Z,60.60
2022-08-04T06:45:34.573Z,60.10
2022-08-04T06:48:03.854Z,59.90
2022-08-04T06:51:24.504Z,59.60
2022-08-04T06:53:19.363Z,59.10
2022-08-04T06:55:48.544Z,57.90
2022-08-04T06:58:16.983Z,57.10
2022-08-04T07:00:46.965Z,57.30
2022-08-04T07:03:16.675Z,57.50
2022-08-04T07:05:46.369Z,57.70
2022-08-04T07:08:13.922Z,56.70
2022-08-04T07:10:41.175Z,55.90
2022-08-04T07:13:09.475Z,54.40
2022-08-04T07:15:38.977Z,53.90
2022-08-04T07:18:05.961Z,52.60
2022-08-04T07:20:35.339Z,50.90
2022-08-04T07:23:07.016Z,48.30
2022-08-04T07:25:59.718Z,46.20
2022-08-04T07:28:25.299Z,45.00
2022-08-04T07:30:53.759Z,42.40
2022-08-04T07:33:22.329Z,40.40
2022-08-04T07:36:04.518Z,39.30
2022-08-04T07:38:48.447Z,37.60
2022-08-04T07:41:39.031Z,36.70
2022-08-04T07:44:07.699Z,34.70
2022-08-04T07:46:38.955Z,34.70
2022-08-04T07:49:07.169Z,33.50
2022-08-04T07:51:35.736Z,31.80
2022-08-04T07:54:05.153Z,31.80
2022-08-04T07:56:36.651Z,31.00
2022-08-04T07:59:05.063Z,30.50
2022-08-04T08:01:32.789Z,30.10
2022-08-04T08:04:01.010Z,29.50
2022-08-04T08:06:32.830Z,28.60
2022-08-04T08:09:18.046Z,30.20
2022-08-04T08:12:36.407Z,28.40
2022-08-04T08:14:36.600Z,27.60
2022-08-04T08:17:04.935Z,27.40
2022-08-04T08:19:34.686Z,27.30
2022-08-04T08:22:02.764Z,28.00
2022-08-04T08:24:31.069Z,28.60
2022-08-04T08:26:58.870Z,28.30
2022-08-04T08:29:26.964Z,27.30
2022-08-04T08:31:55.652Z,27.20
2022-08-04T08:34:28.070Z,27.60
2022-08-04T08:37:04.544Z,26.70
2022-08-04T08:39:58.264Z,26.50
2022-08-04T08:42:25.118Z,26.30
2022-08-04T08:45:23.291Z,26.90
2022-08-04T08:48:16.937Z,25.20
2022-08-04T08:51:08.335Z,24.90
2022-08-04T08:54:09.819Z,25.20
2022-08-04T08:57:04.138Z,24.70
2022-08-04T08:59:43.145Z,24.70
2022-08-04T09:02:31.321Z,24.20
2022-08-04T09:04:58.145Z,24.30
2022-08-04T09:07:36.840Z,23.30
2022-08-04T09:10:12.322Z,23.80
2022-08-04T09:12:57.656Z,24.20
2022-08-04T09:15:30.715Z,25.00
2022-08-04T09:18:25.189Z,24.50
2022-08-04T09:21:00.632Z,25.50
2022-08-04T09:24:03.256Z,24.30
2022-08-04T09:26:59.907Z,24.70
2022-08-04T09:29:34.945Z,26.00
2022-08-04T09:32:30.052Z,25.30
2022-08-04T09:35:15.642Z,25.70
2022-08-04T09:38:13.821Z,25.60
2022-08-04T09:41:20.724Z,25.80
2022-08-04T09:44:50.974Z,25.20
2022-08-04T09:47:19.622Z,24.30
2022-08-04T09:49:52.482Z,25.30
2022-08-04T09:52:36.706Z,24.10
2022-08-04T09:55:06.389Z,23.20
2022-08-04T09:58:02.419Z,23.30
2022-08-04T10:00:42.122Z,23.20
2022-08-04T10:03:17.489Z,23.10
2022-08-04T10:06:04.666Z,23.30
2022-08-04T10:08:55.299Z,22.50
2022-08-04T10:12:12.440Z,23.50
2022-08-04T10:14:42.196Z,22.20
2022-08-04T10:17:58.298Z,22.70
2022-08-04T10:20:56.728Z,22.60
2022-08-04T10:24:00.133Z,23.40
2022-08-04T10:26:48.479Z,23.40
2022-08-04T10:29:38.962Z,22.90
2022-08-04T10:32:14.673Z,22.60
2022-08-04T10:34:57.862Z,22.40
2022-08-04T10:37:54.607Z,23.50
2022-08-04T10:40:36.351Z,23.40
2022-08-04T10:43:37.342Z,23.40
2022-08-04T10:46:14.893Z,23.20
2022-08-04T10:48:45.704Z,22.70
2022-08-04T10:51:58.514Z,23.20
2022-08-04T10:54:51.619Z,23.70
2022-08-04T10:57:29.946Z,23.80
2022-08-04T11:00:09.172Z,25.50
2022-08-04T11:02:48.094Z,24.70
2022-08-04T11:05:53.875Z,24.60
2022-08-04T11:08:29.569Z,25.00
2022-08-04T11:11:05.063Z,25.40
2022-08-04T11:13:46.807Z,25.80
2022-08-04T11:16:19.763Z,25.70
2022-08-04T11:19:44.912Z,27.10
2022-08-04T11:22:24.046Z,26.40
2022-08-04T11:25:17.687Z,27.70
2022-08-04T11:28:03.473Z,27.60
2022-08-04T11:30:52.805Z,27.30
2022-08-04T11:33:36.778Z,27.90
2022-08-04T11:36:10.421Z,29.90
2022-08-04T11:39:03.109Z,29.10
2022-08-04T11:42:00.352Z,29.20
2022-08-04T11:44:48.301Z,28.80
2022-08-04T11:47:39.629Z,29.30
2022-08-04T11:50:21.153Z,29.20
2022-08-04T11:52:49.881Z,29.70
2022-08-04T11:55:21.280Z,29.70
2022-08-04T11:57:54.343Z,29.40
2022-08-04T12:00:23.086Z,31.10
2022-08-04T12:03:04.335Z,29.40
2022-08-04T12:05:36.918Z,29.70
2022-08-04T12:08:19.376Z,31.20
2022-08-04T12:11:05.336Z,31.60
2022-08-04T12:13:42.180Z,31.20
2022-08-04T12:16:30.774Z,30.70
2022-08-04T12:18:58.847Z,30.40
2022-08-04T12:21:34.935Z,31.70
2022-08-04T12:24:07.356Z,31.10
2022-08-04T12:26:42.859Z,31.10
2022-08-04T12:29:15.068Z,31.30
2022-08-04T12:32:13.651Z,30.40
2022-08-04T12:35:15.199Z,29.70
2022-08-04T12:38:04.508Z,28.50
2022-08-04T12:40:43.591Z,28.10
2022-08-04T12:43:26.482Z,28.50
2022-08-04T12:45:57.042Z,28.10
2022-08-04T12:48:25.390Z,28.60
2022-08-04T12:50:54.429Z,29.00
2022-08-04T12:53:31.924Z,28.50
2022-08-04T12:56:01.686Z,28.10
2022-08-04T12:58:42.840Z,27.90
2022-08-04T13:02:10.826Z,26.90
2022-08-04T13:04:18.283Z,26.80
2022-08-04T13:06:53.610Z,26.40
2022-08-04T13:09:23.694Z,26.50
2022-08-04T13:12:11.306Z,26.10
2022-08-04T13:14:45.611Z,25.60
2022-08-04T13:17:12.830Z,26.00
2022-08-04T13:19:46.208Z,25.70
2022-08-04T13:22:23.397Z,26.10
2022-08-04T13:25:17.958Z,27.20
2022-08-04T13:27:48.390Z,28.50
2022-08-04T13:30:22.730Z,28.60
2022-08-04T13:32:57.276Z,29.40
2022-08-04T13:35:54.164Z,29.80
2022-08-04T13:38:14.552Z,29.70
2022-08-04T13:40:45.670Z,30.60
2022-08-04T13:44:16.132Z,30.60
2022-08-04T13:46:35.266Z,31.00
2022-08-04T13:52:09.941Z,32.50
2022-08-04T13:54:47.041Z,33.80
2022-08-04T13:57:19.626Z,33.10
2022-08-04T13:59:53.655Z,33.30
2022-08-04T14:02:34.353Z,33.30
2022-08-04T14:05:18.772Z,33.20
2022-08-04T14:07:50.953Z,32.60
2022-08-04T14:10:18.281Z,32.50
2022-08-04T14:12:50.675Z,32.60
2022-08-04T14:16:01.679Z,32.90
2022-08-04T14:18:32.634Z,33.70
2022-08-04T14:21:16.519Z,34.80
2022-08-04T14:23:47.766Z,34.00
2022-08-04T14:26:32.609Z,33.50
2022-08-04T14:29:27.421Z,35.40
2022-08-04T14:32:12.523Z,34.40
2022-08-04T14:34:45.113Z,33.50
2022-08-04T14:37:20.481Z,33.70
2022-08-04T14:40:17.590Z,33.50
2022-08-04T14:42:55.139Z,33.70
2022-08-04T14:45:34.900Z,34.50
2022-08-04T14:48:06.588Z,34.30
2022-08-04T14:50:47.296Z,34.80
2022-08-04T14:53:20.332Z,34.30
2022-08-04T14:55:50.951Z,35.10
2022-08-04T14:58:35.008Z,34.60
2022-08-04T15:01:12.883Z,34.40
2022-08-04T15:03:50.425Z,33.90
2022-08-04T15:06:27.965Z,34.10
2022-08-04T15:08:58.125Z,33.90
2022-08-04T15:11:25.474Z,34.40
2022-08-04T15:13:53.992Z,34.40
2022-08-04T15:16:22.323Z,33.80
2022-08-04T15:18:50.249Z,33.90
2022-08-04T15:21:17.906Z,33.90
2022-08-04T15:23:44.762Z,34.20
2022-08-04T15:26:31.087Z,34.30
2022-08-04T15:29:05.640Z,34.60
2022-08-04T15:32:06.581Z,34.10
2022-08-04T15:34:27.740Z,34.30
2022-08-04T15:37:02.442Z,34.40
2022-08-04T15:39:45.385Z,35.00
2022-08-04T15:42:52.205Z,35.10
2022-08-04T15:46:33.057Z,36.60
2022-08-04T15:48:20.127Z,35.70
2022-08-04T15:50:56.116Z,34.70
2022-08-04T15:53:23.268Z,34.90
2022-08-04T15:56:24.920Z,34.60
2022-08-04T15:58:58.186Z,35.00
2022-08-04T16:01:25.465Z,35.30
2022-08-04T16:03:59.573Z,34.70
2022-08-04T16:06:29.363Z,34.50
2022-08-04T16:09:05.253Z,34.40
2022-08-04T16:11:33.335Z,34.40
2022-08-04T16:14:01.092Z,34.50
2022-08-04T16:16:37.245Z,34.90
2022-08-04T16:19:08.233Z,34.50
2022-08-04T16:21:48.942Z,34.40
2022-08-04T16:24:31.950Z,35.20
2022-08-04T16:27:00.811Z,34.60
2022-08-04T16:29:30.599Z,35.10
2022-08-04T16:32:12.600Z,34.90
2022-08-04T16:34:54.024Z,37.20
2022-08-04T16:37:24.686Z,36.10
2022-08-04T16:40:44.360Z,36.40
2022-08-04T16:43:16.473Z,35.50
2022-08-04T16:45:51.033Z,36.10
2022-08-04T16:48:22.286Z,38.40
2022-08-04T16:51:04.698Z,36.10
2022-08-04T16:54:02.577Z,35.30
2022-08-04T16:56:34.399Z,35.40
2022-08-04T16:59:12.785Z,37.10
2022-08-04T17:01:51.529Z,35.40
2022-08-04T17:04:27.925Z,37.20
2022-08-04T17:07:00.451Z,37.00
2022-08-04T17:09:28.856Z,37.80
2022-08-04T17:11:57.045Z,38.80
2022-08-04T17:14:26.775Z,39.20
2022-08-04T17:16:59.489Z,39.90
2022-08-04T17:19:27.270Z,38.90
2022-08-04T17:22:05.773Z,37.30
2022-08-04T17:24:36.384Z,36.90
2022-08-04T17:28:09.644Z,36.80
2022-08-04T17:29:51.498Z,36.90
2022-08-04T17:32:22.367Z,36.60
2022-08-04T17:34:51.971Z,36.70
2022-08-04T17:37:52.582Z,36.50
2022-08-04T17:40:18.318Z,36.90
2022-08-04T17:42:50.927Z,37.10
2022-08-04T17:45:53.807Z,37.30
2022-08-04T17:48:09.463Z,37.20
2022-08-04T17:50:36.832Z,37.20
2022-08-04T17:53:11.516Z,37.40
2022-08-04T17:55:39.702Z,37.40
2022-08-04T17:58:20.986Z,37.60
2022-08-04T18:00:51.212Z,37.80
2022-08-04T18:03:29.966Z,37.70
2022-08-04T18:06:03.252Z,37.80
2022-08-04T18:08:37.932Z,38.40
2022-08-04T18:11:18.881Z,41.10
2022-08-04T18:13:54.337Z,43.30
2022-08-04T18:16:24.447Z,41.80
2022-08-04T18:19:15.692Z,43.70
2022-08-04T18:22:00.265Z,44.90
2022-08-04T18:24:56.075Z,43.70
2022-08-04T18:27:24.385Z,44.00
2022-08-04T18:30:34.443Z,44.20
2022-08-04T18:33:10.162Z,45.20
2022-08-04T18:36:31.643Z,44.40
2022-08-04T18:38:22.468Z,44.90
2022-08-04T18:40:54.340Z,45.70
2022-08-04T18:43:28.285Z,45.50
2022-08-04T18:46:21.075Z,46.00
2022-08-04T18:48:52.376Z,47.20
2022-08-04T18:51:23.567Z,46.40
2022-08-04T18:53:55.477Z,49.00
2022-08-04T18:56:29.729Z,48.60
2022-08-04T18:59:03.824Z,48.70
2022-08-04T19:02:12.818Z,50.60
2022-08-04T19:04:33.100Z,49.30
2022-08-04T19:07:24.368Z,49.50
2022-08-04T19:09:57.229Z,49.50
2022-08-04T19:12:27.400Z,50.30
2022-08-04T19:15:08.106Z,52.40
2022-08-04T19:17:53.398Z,51.30
2022-08-04T19:20:26.376Z,51.80
2022-08-04T19:26:01.196Z,53.30
2022-08-04T19:31:20.508Z,54.00
2022-08-04T19:34:04.518Z,54.20
2022-08-04T19:36:33.112Z,53.90
2022-08-04T19:39:11.507Z,53.90
2022-08-04T19:42:05.831Z,53.90
2022-08-04T19:44:30.060Z,54.60
2022-08-04T19:47:00.439Z,56.60
2022-08-04T19:50:04.824Z,56.00
2022-08-04T19:52:34.078Z,56.60
2022-08-04T19:55:12.452Z,56.50
2022-08-04T19:57:49.422Z,56.90
2022-08-04T20:00:33.659Z,57.10
2022-08-04T20:03:11.433Z,57.10
2022-08-04T20:05:54.416Z,57.90
2022-08-04T20:08:24.317Z,56.30
2022-08-04T20:10:52.480Z,57.60
2022-08-04T20:13:21.606Z,57.60
2022-08-04T20:15:57.733Z,57.50
2022-08-04T20:18:35.593Z,57.70
2022-08-04T20:21:11.218Z,58.10
2022-08-04T20:23:47.854Z,58.20
2022-08-04T20:26:15.730Z,58.40
2022-08-04T20:28:42.511Z,59.90
2022-08-04T20:31:18.209Z,59.70
2022-08-04T20:33:53.926Z,58.80
2022-08-04T20:39:09.610Z,59.40
2022-08-04T20:41:37.152Z,59.20
2022-08-04T20:44:04.161Z,59.40
2022-08-04T20:46:37.609Z,60.00
2022-08-04T20:49:04.488Z,59.70
2022-08-04T20:57:06.164Z,60.50
2022-08-04T20:59:36.190Z,62.00
2022-08-04T21:02:16.186Z,62.70
2022-08-04T21:04:48.502Z,61.30
2022-08-04T21:07:16.950Z,60.20
2022-08-04T21:09:50.187Z,59.80
2022-08-04T21:12:27.256Z,61.10
2022-08-04T21:15:16.560Z,61.50
2022-08-04T21:17:58.617Z,61.00
2022-08-04T21:20:38.211Z,61.50
2022-08-04T21:23:22.202Z,62.30
2022-08-04T21:26:00.260Z,63.60
2022-08-04T21:28:33.867Z,62.10
2022-08-04T21:31:02.311Z,62.40
2022-08-04T21:33:50.009Z,62.70
2022-08-04T21:36:19.780Z,62.20
2022-08-04T21:38:51.338Z,62.70
2022-08-04T21:41:20.474Z,63.40
2022-08-04T21:43:51.486Z,64.10
2022-08-04T21:46:18.452Z,63.10
2022-08-04T21:48:45.286Z,64.10
2022-08-04T21:51:21.707Z,64.40
2022-08-04T21:54:09.113Z,64.70
2022-08-04T21:56:38.125Z,65.10
2022-08-04T21:59:11.474Z,64.50
2022-08-04T22:01:51.770Z,64.40
2022-08-04T22:04:19.857Z,64.00
2022-08-04T22:06:51.913Z,64.40
2022-08-04T22:09:21.597Z,64.30
2022-08-04T22:11:51.162Z,65.10
2022-08-04T22:14:27.238Z,64.60
2022-08-04T22:16:58.509Z,65.30
2022-08-04T22:19:50.272Z,65.80
2022-08-04T22:22:24.810Z,65.90
2022-08-04T22:24:54.786Z,66.00
2022-08-04T22:27:40.028Z,66.40
2022-08-04T22:30:13.353Z,66.70
2022-08-04T22:32:45.273Z,67.20
2022-08-04T22:35:42.975Z,67.50
2022-08-04T22:38:06.151Z,67.80
2022-08-04T22:40:38.323Z,67.90
2022-08-04T22:43:22.630Z,68.20
2022-08-04T22:45:52.840Z,68.10
2022-08-04T22:48:20.509Z,67.70
2022-08-04T22:50:47.704Z,68.10
2022-08-04T22:53:17.699Z,66.80
2022-08-04T22:56:07.692Z,66.60
2022-08-04T22:58:32.524Z,66.40
2022-08-04T23:00:59.944Z,66.00
2022-08-04T23:03:37.069Z,65.90
2022-08-04T23:06:11.750Z,65.90
2022-08-04T23:08:43.192Z,66.20
2022-08-04T23:11:14.737Z,67.60
2022-08-04T23:13:45.565Z,67.40
2022-08-04T23:16:14.117Z,66.70
2022-08-04T23:18:43.411Z,67.40
2022-08-04T23:21:14.032Z,67.70
2022-08-04T23:23:55.357Z,68.20
2022-08-04T23:26:28.411Z,69.30
2022-08-04T23:28:56.436Z,69.10
2022-08-04T23:31:24.096Z,68.70
2022-08-04T23:33:52.386Z,69.00
2022-08-04T23:36:26.277Z,69.10
2022-08-04T23:39:00.412Z,69.00
2022-08-04T23:41:54.269Z,68.60
2022-08-04T23:44:24.166Z,68.90
2022-08-04T23:46:58.230Z,68.40
2022-08-04T23:49:25.267Z,68.20
2022-08-04T23:52:27.821Z,68.00
2022-08-04T23:55:00.708Z,67.70
2022-08-04T23:58:02.240Z,68.10
